Time;durP1;ratioP1;P1;durP2;ratioP2;P2;SDS_P1;SDS_P2;PMS_P1;PMS_P2;Temp;Humidity;BMP_temperature;BMP_pressure;BME280_temperature;BME280_humidity;BME280_pressure;Samples;Min_cycle;Max_cycle;Signal;HPM_P1;HPM_P2
2022/04/08 00:01:40;;;;;;;5.55;1.60;;;7.60;99.90;;;;;;5069517;28;20380;-83
2022/04/08 00:04:06;;;;;;;4.47;2.08;;;7.60;99.90;;;;;;5054276;28;20441;-81
2022/04/08 00:06:32;;;;;;;4.18;2.20;;;7.70;99.90;;;;;;5069712;28;20403;-82
2022/04/08 00:08:57;;;;;;;4.23;1.80;;;7.70;99.90;;;;;;5054900;28;20885;-82
2022/04/08 00:11:23;;;;;;;4.77;2.03;;;7.80;99.90;;;;;;5053776;28;20391;-83
2022/04/08 00:13:52;;;;;;;5.90;2.08;;;7.70;99.90;;;;;;5053898;28;20411;-83
2022/04/08 00:16:18;;;;;;;4.20;1.83;;;7.60;99.90;;;;;;5053656;28;20449;-83
2022/04/08 00:18:45;;;;;;;3.67;1.93;;;7.50;99.90;;;;;;5053237;28;20427;-82
2022/04/08 00:21:11;;;;;;;3.60;2.25;;;7.50;99.90;;;;;;5068893;28;20738;-84
2022/04/08 00:23:36;;;;;;;4.45;1.60;;;7.20;99.90;;;;;;5068525;28;20467;-81
2022/04/08 00:26:02;;;;;;;1.92;1.40;;;7.00;99.90;;;;;;5052717;28;20387;-84
2022/04/08 00:28:28;;;;;;;2.60;1.50;;;6.90;99.90;;;;;;5052436;28;20411;-83
2022/04/08 00:30:53;;;;;;;4.77;1.90;;;6.80;99.90;;;;;;5052065;28;20417;-83
2022/04/08 00:33:19;;;;;;;3.28;1.50;;;6.90;99.90;;;;;;5052037;28;20375;-82
2022/04/08 00:35:44;;;;;;;3.53;1.80;;;6.80;99.90;;;;;;5052281;28;20383;-82
2022/04/08 00:38:10;;;;;;;4.30;1.80;;;6.70;99.90;;;;;;5052376;28;20375;-83
2022/04/08 00:40:35;;;;;;;3.08;1.42;;;6.80;99.90;;;;;;5051504;28;20384;-81
2022/04/08 00:43:16;;;;;;;4.18;1.60;;;6.80;99.90;;;;;;5066080;28;20881;-83
2022/04/08 00:45:43;;;;;;;5.60;2.17;;;6.80;99.90;;;;;;5067211;28;20387;-83
2022/04/08 00:48:09;;;;;;;2.97;1.40;;;7.00;99.90;;;;;;5050617;28;20400;-83
2022/04/08 00:50:41;;;;;;;2.17;1.47;;;7.00;99.90;;;;;;5067166;28;20461;-82
2022/04/08 00:53:07;;;;;;;2.77;1.30;;;7.00;99.90;;;;;;5051675;28;20372;-82
2022/04/08 00:55:38;;;;;;;1.75;1.38;;;7.10;99.90;;;;;;5050618;28;20372;-83
2022/04/08 00:58:05;;;;;;;3.00;1.45;;;7.10;99.90;;;;;;5051584;28;20400;-83
2022/04/08 01:00:35;;;;;;;3.80;1.58;;;7.10;99.90;;;;;;5051532;28;20380;-83
2022/04/08 01:03:01;;;;;;;2.47;1.35;;;7.20;99.90;;;;;;5051473;28;20406;-83
2022/04/08 01:05:27;;;;;;;3.38;1.65;;;7.20;99.90;;;;;;5067511;28;20881;-83
2022/04/08 01:07:54;;;;;;;3.00;1.50;;;7.30;99.90;;;;;;5067792;28;20395;-81
2022/04/08 01:10:20;;;;;;;4.77;1.70;;;7.30;99.90;;;;;;5051517;28;20391;-82
2022/04/08 01:12:49;;;;;;;3.08;1.40;;;7.20;99.90;;;;;;5052975;28;20408;-83
2022/04/08 01:15:18;;;;;;;3.25;1.30;;;7.20;99.90;;;;;;5067898;28;20395;-82
2022/04/08 01:17:44;;;;;;;3.10;1.40;;;7.20;99.90;;;;;;5068069;28;20384;-82
2022/04/08 01:20:10;;;;;;;3.43;1.43;;;7.10;99.90;;;;;;5053485;28;20459;-83
2022/04/08 01:22:35;;;;;;;2.67;1.50;;;7.20;99.90;;;;;;5053568;28;20421;-83
2022/04/08 01:25:03;;;;;;;2.03;1.50;;;7.30;99.90;;;;;;5051705;28;20462;-83
2022/04/08 01:27:29;;;;;;;3.00;1.48;;;7.30;99.90;;;;;;5053284;28;20412;-83
2022/04/08 01:29:55;;;;;;;3.22;1.60;;;7.30;99.90;;;;;;5052133;28;20376;-83
2022/04/08 01:32:22;;;;;;;3.15;1.27;;;7.30;99.90;;;;;;5054395;28;20475;-83
2022/04/08 01:34:52;;;;;;;4.88;1.67;;;7.20;99.90;;;;;;5068312;28;20467;-82
2022/04/08 01:37:19;;;;;;;2.08;1.42;;;7.20;99.90;;;;;;5067349;28;20403;-83
2022/04/08 01:39:44;;;;;;;4.88;1.52;;;7.10;99.90;;;;;;5052124;28;20383;-83
2022/04/08 01:42:10;;;;;;;5.30;1.90;;;7.10;99.90;;;;;;5051915;28;20754;-83
2022/04/08 01:44:37;;;;;;;3.58;1.70;;;7.20;99.90;;;;;;5052150;28;20380;-84
2022/04/08 01:47:03;;;;;;;4.60;1.52;;;7.20;99.90;;;;;;5052014;28;20396;-82
2022/04/08 01:49:29;;;;;;;3.20;1.67;;;7.10;99.90;;;;;;5067973;28;20967;-83
2022/04/08 01:51:54;;;;;;;5.00;1.90;;;6.90;99.90;;;;;;5052446;28;20422;-83
2022/04/08 01:54:20;;;;;;;4.10;1.60;;;6.90;99.90;;;;;;5052031;28;20455;-83
2022/04/08 01:56:46;;;;;;;3.45;2.05;;;7.00;99.90;;;;;;5052246;28;20394;-82
2022/04/08 01:59:12;;;;;;;5.25;2.15;;;7.10;99.90;;;;;;5052627;28;20372;-83
2022/04/08 02:01:37;;;;;;;5.40;1.87;;;7.00;99.90;;;;;;5068853;28;20390;-82
2022/04/08 02:04:04;;;;;;;4.65;1.83;;;7.10;99.90;;;;;;5052062;28;20415;-83
2022/04/08 02:06:30;;;;;;;4.28;2.08;;;7.20;99.90;;;;;;5052637;28;20500;-84
2022/04/08 02:08:57;;;;;;;1.98;1.48;;;7.20;99.90;;;;;;5068759;28;20426;-83
2022/04/08 02:11:23;;;;;;;5.03;1.67;;;7.20;99.90;;;;;;5052737;28;21111;-83
2022/04/08 02:13:49;;;;;;;3.90;1.85;;;7.30;99.90;;;;;;5066276;28;20442;-82
2022/04/08 02:16:15;;;;;;;4.60;1.75;;;7.30;99.90;;;;;;5050700;28;20368;-82
2022/04/08 02:18:42;;;;;;;3.90;1.67;;;7.30;99.90;;;;;;5051587;28;20965;-82
2022/04/08 02:21:09;;;;;;;2.58;1.75;;;7.40;99.90;;;;;;5067050;28;20430;-84
2022/04/08 02:23:38;;;;;;;4.07;1.70;;;7.30;99.90;;;;;;5050810;28;20614;-84
2022/04/08 02:26:05;;;;;;;3.90;1.73;;;7.30;99.90;;;;;;5066178;28;20499;-83
2022/04/08 02:28:34;;;;;;;5.13;1.98;;;7.30;99.90;;;;;;5054591;28;20399;-82
2022/04/08 02:31:00;;;;;;;5.20;1.80;;;7.40;99.90;;;;;;5071258;28;20445;-83
2022/04/08 02:33:25;;;;;;;4.47;1.88;;;7.40;99.90;;;;;;5070784;28;20808;-82
2022/04/08 02:35:51;;;;;;;3.47;1.80;;;7.30;99.90;;;;;;5054455;28;20376;-83
2022/04/08 02:38:17;;;;;;;4.30;1.80;;;7.40;99.90;;;;;;5055976;28;20508;-83
2022/04/08 02:40:43;;;;;;;5.47;1.77;;;7.40;99.90;;;;;;5055593;28;20934;-83
2022/04/08 02:43:09;;;;;;;4.15;1.73;;;7.40;99.90;;;;;;5069870;28;20407;-82
2022/04/08 02:45:34;;;;;;;3.97;1.50;;;7.30;99.90;;;;;;5055275;28;20375;-83
2022/04/08 02:48:00;;;;;;;3.50;1.60;;;7.30;99.90;;;;;;5053544;28;20902;-82
2022/04/08 02:50:26;;;;;;;5.30;1.80;;;7.30;99.90;;;;;;5054917;28;20388;-83
2022/04/08 02:52:51;;;;;;;5.00;1.70;;;7.40;99.90;;;;;;5055858;28;20437;-83
2022/04/08 02:55:18;;;;;;;5.05;1.83;;;7.40;99.90;;;;;;5071112;28;20388;-82
2022/04/08 02:57:47;;;;;;;2.97;1.80;;;7.30;99.90;;;;;;5055990;28;20472;-83
2022/04/08 03:00:19;;;;;;;3.17;1.50;;;7.40;99.90;;;;;;5071515;28;20390;-83
2022/04/08 03:02:45;;;;;;;4.50;1.35;;;7.50;99.90;;;;;;5055453;28;20384;-83
2022/04/08 03:05:12;;;;;;;5.72;1.90;;;7.40;99.90;;;;;;5056465;28;20375;-83
2022/04/08 03:07:38;;;;;;;6.57;1.83;;;7.30;99.90;;;;;;5054070;28;20400;-83
2022/04/08 03:10:05;;;;;;;5.03;1.90;;;7.30;99.90;;;;;;5053461;28;20379;-81
2022/04/08 03:12:31;;;;;;;5.15;1.80;;;7.30;99.90;;;;;;5069367;28;20380;-83
2022/04/08 03:14:57;;;;;;;2.72;1.50;;;7.30;99.90;;;;;;5069215;28;20434;-83
2022/04/08 03:17:23;;;;;;;3.92;1.60;;;7.40;99.90;;;;;;5054251;28;20379;-82
2022/04/08 03:19:49;;;;;;;4.05;1.50;;;7.30;99.90;;;;;;5069563;28;20380;-82
2022/04/08 03:22:19;;;;;;;2.90;1.33;;;7.30;99.90;;;;;;5069816;28;20889;-83
2022/04/08 03:24:45;;;;;;;3.20;1.40;;;7.30;99.90;;;;;;5069586;28;20437;-83
2022/04/08 03:27:11;;;;;;;3.30;1.45;;;7.40;99.90;;;;;;5054461;28;20483;-82
2022/04/08 03:29:37;;;;;;;3.75;1.50;;;7.30;99.90;;;;;;5070589;28;20427;-82
2022/04/08 03:32:02;;;;;;;2.63;1.30;;;7.30;99.90;;;;;;5054382;28;20421;-83
2022/04/08 03:34:28;;;;;;;4.55;1.40;;;7.30;99.90;;;;;;5054359;28;20870;-82
2022/04/08 03:36:54;;;;;;;3.03;1.30;;;7.40;99.90;;;;;;5054794;28;20372;-84
2022/04/08 03:39:20;;;;;;;2.70;1.07;;;7.30;99.90;;;;;;5068820;28;20763;-82
2022/04/08 03:41:46;;;;;;;2.75;1.10;;;7.40;99.90;;;;;;5069305;28;20431;-83
2022/04/08 03:44:11;;;;;;;2.17;1.10;;;7.40;99.90;;;;;;5069588;28;20475;-83
2022/04/08 03:46:37;;;;;;;2.72;1.23;;;7.30;99.90;;;;;;5054099;28;20430;-82
2022/04/08 03:49:04;;;;;;;3.25;1.20;;;7.30;99.90;;;;;;5054578;28;20384;-83
2022/04/08 03:51:30;;;;;;;1.67;1.00;;;7.40;99.90;;;;;;5069648;28;21016;-83
2022/04/08 03:53:56;;;;;;;2.90;1.13;;;7.30;99.90;;;;;;5070246;28;20471;-82
2022/04/08 03:56:21;;;;;;;1.98;1.20;;;7.20;99.90;;;;;;5054142;28;20379;-82
2022/04/08 03:58:47;;;;;;;1.40;0.80;;;7.10;99.90;;;;;;5069191;28;20399;-80
2022/04/08 04:01:12;;;;;;;2.23;0.90;;;7.10;99.90;;;;;;5055101;28;20470;-83
2022/04/08 04:03:38;;;;;;;2.72;1.00;;;7.00;99.90;;;;;;5054955;28;20385;-83
2022/04/08 04:06:04;;;;;;;2.22;1.00;;;6.80;99.90;;;;;;5053129;28;20388;-82
2022/04/08 04:08:30;;;;;;;2.55;0.90;;;6.80;99.90;;;;;;5054705;28;20395;-84
2022/04/08 04:10:55;;;;;;;1.93;1.00;;;6.80;99.90;;;;;;5070544;28;20388;-83
2022/04/08 04:13:21;;;;;;;2.50;1.27;;;6.70;99.90;;;;;;5055652;28;20441;-83
2022/04/08 04:15:46;;;;;;;3.60;1.73;;;6.60;99.90;;;;;;5055371;28;20430;-83
2022/04/08 04:18:12;;;;;;;2.70;1.30;;;6.60;99.90;;;;;;5070548;28;20380;-83
2022/04/08 04:20:38;;;;;;;2.58;1.23;;;6.50;99.90;;;;;;5056624;28;20730;-83
2022/04/08 04:23:04;;;;;;;3.63;1.53;;;6.50;99.90;;;;;;5054333;28;20388;-83
2022/04/08 04:25:29;;;;;;;2.73;1.30;;;6.40;99.90;;;;;;5055968;28;20371;-83
2022/04/08 04:27:55;;;;;;;4.13;1.52;;;6.40;99.90;;;;;;5055033;28;20391;-82
2022/04/08 04:30:23;;;;;;;3.53;1.70;;;6.40;99.90;;;;;;5055290;28;20422;-84
2022/04/08 04:32:49;;;;;;;2.70;1.35;;;6.50;99.90;;;;;;5055184;28;20388;-83
2022/04/08 04:35:15;;;;;;;3.10;1.50;;;7.00;99.90;;;;;;5069906;28;20437;-83
2022/04/08 04:37:40;;;;;;;2.78;1.50;;;6.90;99.90;;;;;;5054770;28;20422;-84
2022/04/08 04:40:08;;;;;;;4.63;1.60;;;6.40;99.90;;;;;;5053711;28;20865;-82
2022/04/08 04:42:34;;;;;;;3.80;1.50;;;6.50;99.90;;;;;;5068983;28;20400;-84
2022/04/08 04:45:00;;;;;;;4.38;1.65;;;6.60;99.90;;;;;;5053582;28;20507;-82
2022/04/08 04:47:26;;;;;;;3.92;1.58;;;6.50;99.90;;;;;;5053117;28;20443;-83
2022/04/08 04:49:51;;;;;;;3.50;1.60;;;6.40;99.90;;;;;;5052629;28;20548;-83
2022/04/08 04:52:17;;;;;;;4.60;1.50;;;6.50;99.90;;;;;;5052968;28;20414;-82
2022/04/08 04:54:42;;;;;;;4.20;1.52;;;6.70;99.90;;;;;;5068920;28;21038;-82
2022/04/08 04:57:08;;;;;;;4.35;1.70;;;6.40;99.90;;;;;;5052854;28;20388;-82
2022/04/08 04:59:34;;;;;;;4.63;1.43;;;6.30;99.90;;;;;;5066556;28;20391;-84
2022/04/08 05:02:00;;;;;;;4.20;1.60;;;6.80;99.90;;;;;;5051785;28;20901;-82
2022/04/08 05:04:25;;;;;;;3.10;1.43;;;6.60;99.90;;;;;;5051881;28;20463;-84
2022/04/08 05:06:51;;;;;;;3.08;1.50;;;6.50;99.90;;;;;;5052164;28;20470;-82
2022/04/08 05:09:17;;;;;;;4.50;1.80;;;6.50;99.90;;;;;;5045873;28;20976;-81
2022/04/08 05:11:52;;;;;;;3.70;1.40;;;6.50;99.90;;;;;;5118295;27;20358;-82
2022/04/08 05:14:18;;;;;;;3.93;1.90;;;6.80;99.90;;;;;;5098614;28;20485;-82
2022/04/08 05:16:43;;;;;;;3.00;1.60;;;6.50;99.90;;;;;;5104777;28;20406;-82
2022/04/08 05:19:09;;;;;;;5.40;1.73;;;6.90;99.90;;;;;;5106712;28;20376;-83
2022/04/08 05:21:35;;;;;;;2.42;1.48;;;6.80;99.90;;;;;;5107711;28;20450;-80
2022/04/08 05:24:00;;;;;;;3.43;1.70;;;6.70;99.90;;;;;;5108477;28;20463;-83
2022/04/08 05:26:26;;;;;;;3.30;1.80;;;6.70;99.90;;;;;;5108679;28;20376;-82
2022/04/08 05:28:52;;;;;;;3.40;1.55;;;7.10;99.90;;;;;;5107736;28;20375;-82
2022/04/08 05:31:17;;;;;;;5.63;1.87;;;7.30;99.90;;;;;;5105691;28;20408;-82
2022/04/08 05:33:43;;;;;;;2.73;1.40;;;6.90;99.90;;;;;;5108642;28;20414;-81
2022/04/08 05:36:08;;;;;;;3.60;1.40;;;6.70;99.90;;;;;;5102353;28;20399;-82
2022/04/08 05:38:34;;;;;;;5.03;1.80;;;6.70;99.90;;;;;;5110971;28;20471;-81
2022/04/08 05:41:00;;;;;;;2.00;1.33;;;7.20;99.90;;;;;;5109648;28;20363;-82
2022/04/08 05:43:25;;;;;;;3.83;1.45;;;6.70;99.90;;;;;;5109536;28;20371;-82
2022/04/08 05:45:52;;;;;;;3.45;1.45;;;;;;;;;;5108650;27;20415;-83
2022/04/08 05:48:18;;;;;;;4.13;1.90;;;;;;;;;;5108160;28;20368;-83
2022/04/08 05:50:44;;;;;;;4.30;1.70;;;;;;;;;;5108489;28;20392;-82
2022/04/08 05:53:10;;;;;;;4.38;2.08;;;;;;;;;;5105484;28;20873;-82
2022/04/08 05:55:36;;;;;;;2.42;1.30;;;;;;;;;;5105403;28;20458;-83
2022/04/08 05:58:02;;;;;;;3.15;1.60;;;;;;;;;;5106833;27;20553;-82
2022/04/08 06:00:29;;;;;;;2.92;1.60;;;;;;;;;;5107779;28;20360;-82
2022/04/08 06:02:59;;;;;;;3.20;1.70;;;;;;;;;;5106247;28;20417;-81
2022/04/08 06:05:28;;;;;;;2.70;1.40;;;;;;;;;;5106849;28;20379;-82
2022/04/08 06:07:58;;;;;;;3.85;1.50;;;;;;;;;;5108241;28;20380;-81
2022/04/08 06:10:27;;;;;;;3.38;1.42;;;;;;;;;;5108275;28;20900;-83
2022/04/08 06:12:57;;;;;;;3.90;1.60;;;;;;;;;;5101533;28;20398;-82
2022/04/08 06:15:26;;;;;;;3.77;1.60;;;;;;;;;;5105681;28;20368;-82
2022/04/08 06:17:52;;;;;;;5.13;1.80;;;6.60;99.90;;;;;;5104865;28;20861;-82
2022/04/08 06:20:18;;;;;;;6.33;2.00;;;6.00;99.90;;;;;;5096393;28;20405;-81
2022/04/08 06:22:46;;;;;;;7.03;1.80;;;5.60;99.90;;;;;;5089500;28;20395;-80
2022/04/08 06:25:15;;;;;;;5.60;1.92;;;5.30;99.90;;;;;;5091948;28;20471;-82
2022/04/08 06:27:45;;;;;;;4.70;1.70;;;4.90;99.90;;;;;;5088804;28;20429;-82
2022/04/08 06:30:14;;;;;;;5.38;1.77;;;4.80;99.90;;;;;;5091341;28;21087;-81
2022/04/08 06:32:42;;;;;;;7.43;1.95;;;4.60;99.90;;;;;;5091627;28;20842;-82
2022/04/08 06:35:08;;;;;;;4.93;1.90;;;4.50;99.90;;;;;;5090466;28;20377;-81
2022/04/08 06:37:34;;;;;;;5.53;2.70;;;4.40;99.90;;;;;;5090198;28;20471;-81
2022/04/08 06:40:05;;;;;;;5.32;2.10;;;4.30;99.90;;;;;;5091615;28;20789;-82
2022/04/08 06:42:31;;;;;;;3.03;1.60;;;4.30;99.90;;;;;;5092187;28;20475;-81
2022/04/08 06:44:57;;;;;;;4.87;1.70;;;4.20;99.90;;;;;;5089909;28;20380;-82
2022/04/08 06:47:24;;;;;;;5.97;1.70;;;4.10;99.90;;;;;;5091668;28;20481;-82
2022/04/08 06:49:50;;;;;;;5.80;2.00;;;4.10;99.90;;;;;;5091451;28;20376;-83
2022/04/08 06:52:16;;;;;;;7.55;1.95;;;4.20;99.90;;;;;;5083355;28;20380;-82
2022/04/08 06:54:44;;;;;;;7.32;1.80;;;4.50;99.90;;;;;;5089015;28;20387;-83
2022/04/08 06:57:09;;;;;;;5.97;1.90;;;4.70;99.90;;;;;;5086965;28;20386;-82
2022/04/08 06:59:35;;;;;;;4.33;1.70;;;4.80;99.90;;;;;;5092166;28;20720;-81
2022/04/08 07:02:02;;;;;;;6.00;2.17;;;5.00;99.90;;;;;;5090557;28;20382;-82
2022/04/08 07:04:27;;;;;;;6.95;2.20;;;5.00;99.90;;;;;;5091606;28;20380;-82
2022/04/08 07:06:54;;;;;;;5.25;1.50;;;5.00;99.90;;;;;;5091242;28;20893;-82
2022/04/08 07:09:19;;;;;;;5.03;1.83;;;5.10;99.90;;;;;;5090907;28;20835;-82
2022/04/08 07:11:46;;;;;;;3.40;1.87;;;5.10;99.90;;;;;;5085654;28;20447;-82
2022/04/08 07:14:13;;;;;;;4.72;2.33;;;5.20;99.90;;;;;;5079055;28;20400;-82
2022/04/08 07:16:41;;;;;;;4.93;2.25;;;5.20;99.90;;;;;;5082790;28;20763;-82
2022/04/08 07:19:10;;;;;;;4.13;1.70;;;5.30;99.90;;;;;;5092870;28;20377;-81
2022/04/08 07:21:36;;;;;;;4.65;2.03;;;;;;;;;;5085889;28;20388;-81
2022/04/08 07:24:01;;;;;;;7.13;2.20;;;5.60;99.90;;;;;;5091144;28;20388;-82
2022/04/08 07:26:27;;;;;;;4.93;1.95;;;5.80;99.90;;;;;;5084790;28;20391;-83
2022/04/08 07:28:53;;;;;;;7.15;2.03;;;5.80;99.90;;;;;;5086426;28;20376;-82
2022/04/08 07:31:18;;;;;;;6.27;1.77;;;6.00;99.90;;;;;;5089936;28;20404;-82
2022/04/08 07:33:44;;;;;;;6.77;2.17;;;6.50;99.90;;;;;;5090198;28;20376;-83
2022/04/08 07:36:11;;;;;;;7.57;1.98;;;6.00;99.90;;;;;;5089560;28;20405;-83
2022/04/08 07:38:37;;;;;;;6.87;2.10;;;6.40;99.90;;;;;;5086496;28;20411;-82
2022/04/08 07:41:03;;;;;;;7.57;2.00;;;6.80;99.90;;;;;;5089671;28;20384;-83
2022/04/08 07:43:28;;;;;;;5.70;1.90;;;7.10;99.90;;;;;;5087978;28;20403;-82
2022/04/08 07:45:54;;;;;;;5.97;2.40;;;7.30;99.90;;;;;;5088359;28;20400;-81
2022/04/08 07:48:20;;;;;;;3.87;1.87;;;7.50;99.90;;;;;;5086919;28;20758;-81
2022/04/08 07:50:45;;;;;;;5.40;2.00;;;7.90;99.90;;;;;;5091423;28;20403;-82
2022/04/08 07:53:11;;;;;;;6.28;2.00;;;8.60;99.90;;;;;;5088028;28;20373;-82
2022/04/08 07:55:37;;;;;;;6.72;2.25;;;8.10;99.90;;;;;;5090277;28;20558;-82
2022/04/08 07:58:04;;;;;;;6.73;2.40;;;8.10;99.90;;;;;;5090047;28;20411;-82
2022/04/08 08:00:31;;;;;;;7.40;2.23;;;8.20;99.90;;;;;;5088747;28;20387;-82
2022/04/08 08:02:58;;;;;;;11.18;2.70;;;8.40;99.90;;;;;;5088093;28;20400;-82
2022/04/08 08:05:24;;;;;;;12.03;2.60;;;8.60;99.90;;;;;;5088492;28;20384;-82
2022/04/08 08:07:55;;;;;;;10.13;2.67;;;8.80;99.90;;;;;;5092397;28;20379;-82
2022/04/08 08:10:24;;;;;;;8.95;3.10;;;8.70;99.90;;;;;;5088258;28;20400;-82
2022/04/08 08:12:51;;;;;;;9.80;2.42;;;8.80;99.90;;;;;;5088332;28;20396;-83
2022/04/08 08:15:18;;;;;;;10.02;2.45;;;9.00;99.90;;;;;;5087141;28;20383;-82
2022/04/08 08:17:45;;;;;;;11.90;3.33;;;8.80;99.90;;;;;;5088874;28;20402;-82
2022/04/08 08:20:12;;;;;;;10.65;2.60;;;9.20;99.90;;;;;;5089945;28;20453;-82
2022/04/08 08:22:39;;;;;;;7.50;2.70;;;8.70;99.90;;;;;;5088849;28;20384;-83
2022/04/08 08:25:06;;;;;;;8.07;2.80;;;9.00;99.90;;;;;;5088891;28;20376;-82
2022/04/08 08:27:46;;;;;;;9.63;3.03;;;8.70;99.90;;;;;;5098068;28;20389;-82
2022/04/08 08:30:13;;;;;;;11.95;2.80;;;8.60;99.90;;;;;;5088439;28;20902;-82
2022/04/08 08:32:42;;;;;;;9.52;2.78;;;9.00;99.90;;;;;;5081808;28;20408;-82
2022/04/08 08:35:09;;;;;;;8.52;3.00;;;9.10;99.90;;;;;;5088297;28;20888;-81
2022/04/08 08:37:35;;;;;;;10.70;3.05;;;9.00;99.90;;;;;;5085898;28;20404;-83
2022/04/08 08:40:06;;;;;;;12.05;2.90;;;8.90;99.90;;;;;;5089758;28;20408;-82
2022/04/08 08:42:34;;;;;;;9.52;2.85;;;8.60;99.90;;;;;;5087311;28;20383;-82
2022/04/08 08:45:00;;;;;;;9.80;2.45;;;8.70;99.90;;;;;;5089407;28;20402;-83
2022/04/08 08:47:30;;;;;;;9.07;2.83;;;;;;;;;;5086732;28;20396;-82
2022/04/08 08:49:56;;;;;;;8.57;2.50;;;;;;;;;;5087113;28;20383;-82
2022/04/08 08:52:23;;;;;;;11.37;2.73;;;;;;;;;;5087976;28;20376;-82
2022/04/08 08:54:49;;;;;;;9.32;2.50;;;;;;;;;;5090566;28;20372;-82
2022/04/08 08:57:16;;;;;;;8.30;2.50;;;;;;;;;;5081071;28;20399;-82
2022/04/08 08:59:43;;;;;;;9.65;2.10;;;;;;;;;;5069593;28;20427;-82
2022/04/08 09:02:11;;;;;;;7.88;2.35;;;;;;;;;;5086482;28;20866;-83
2022/04/08 09:04:43;;;;;;;8.50;2.33;;;;;;;;;;5085825;28;20382;-82
2022/04/08 09:07:20;;;;;;;5.68;1.90;;;;;;;;;;5087542;28;20417;-82
2022/04/08 09:09:52;;;;;;;5.80;2.00;;;10.50;99.90;;;;;;5084042;28;20724;-83
2022/04/08 09:12:18;;;;;;;5.88;2.20;;;10.10;99.90;;;;;;5087926;28;20803;-81
2022/04/08 09:14:51;;;;;;;8.70;2.25;;;10.30;99.90;;;;;;5085674;28;20874;-82
2022/04/08 09:17:18;;;;;;;5.78;1.90;;;10.30;99.90;;;;;;5087410;28;20393;-82
2022/04/08 09:19:55;;;;;;;6.65;2.00;;;10.00;99.90;;;;;;5084800;28;20391;-82
2022/04/08 09:22:24;;;;;;;8.95;2.13;;;9.60;99.90;;;;;;5083954;28;20407;-82
2022/04/08 09:24:49;;;;;;;5.97;2.22;;;9.50;99.90;;;;;;5081923;28;20447;-81
2022/04/08 09:27:15;;;;;;;7.90;2.25;;;9.30;99.90;;;;;;5089227;28;20364;-82
2022/04/08 09:29:45;;;;;;;7.20;2.45;;;9.80;99.90;;;;;;5086628;28;20366;-82
2022/04/08 09:32:23;;;;;;;5.73;2.23;;;9.60;99.90;;;;;;5086960;28;20412;-82
2022/04/08 09:34:51;;;;;;;6.18;2.00;;;9.50;99.90;;;;;;5083400;28;20384;-81
2022/04/08 09:37:17;;;;;;;6.93;2.17;;;9.90;99.90;;;;;;5086746;28;20453;-83
2022/04/08 09:40:03;;;;;;;6.70;2.10;;;9.40;99.90;;;;;;5089510;28;20391;-82
2022/04/08 09:42:47;;;;;;;7.90;2.20;;;8.90;99.90;;;;;;5084687;28;20483;-81
2022/04/08 09:45:14;;;;;;;5.00;1.90;;;10.10;99.90;;;;;;5086375;28;20372;-83
2022/04/08 09:47:40;;;;;;;6.00;2.10;;;10.30;99.90;;;;;;5085674;28;20459;-82
2022/04/08 09:50:10;;;;;;;6.90;1.70;;;10.30;99.90;;;;;;5085654;28;20462;-82
2022/04/08 09:52:39;;;;;;;5.88;2.00;;;10.70;99.90;;;;;;5085198;28;20380;-82
2022/04/08 09:55:10;;;;;;;7.70;2.40;;;10.70;99.90;;;;;;5088676;28;20404;-83
2022/04/08 09:57:38;;;;;;;4.77;1.93;;;10.70;99.90;;;;;;5088663;28;20459;-82
2022/04/08 10:00:06;;;;;;;4.80;1.50;;;12.20;99.90;;;;;;5093207;28;20368;-82
2022/04/08 10:02:44;;;;;;;6.63;2.35;;;11.10;99.90;;;;;;5088027;28;20377;-82
2022/04/08 10:05:11;;;;;;;5.60;1.90;;;11.50;99.90;;;;;;5089713;28;20445;-83
2022/04/08 10:07:42;;;;;;;5.75;1.67;;;10.70;99.90;;;;;;5092334;28;20376;-83
2022/04/08 10:10:23;;;;;;;5.85;1.60;;;10.50;99.90;;;;;;5092474;28;20380;-82
2022/04/08 10:13:12;;;;;;;4.45;1.52;;;9.90;99.90;;;;;;5090015;28;20377;-83
2022/04/08 10:15:49;;;;;;;4.05;1.60;;;9.70;99.90;;;;;;5084719;28;20384;-83
2022/04/08 10:18:15;;;;;;;5.03;1.55;;;9.60;99.90;;;;;;5088271;28;20909;-83
2022/04/08 10:20:41;;;;;;;6.82;2.03;;;9.70;99.90;;;;;;5086736;28;20461;-82
2022/04/08 10:23:12;;;;;;;6.33;1.73;;;9.60;99.90;;;;;;5091839;28;20392;-82
2022/04/08 10:25:42;;;;;;;4.30;1.67;;;9.50;99.90;;;;;;5090451;28;20392;-83
2022/04/08 10:28:10;;;;;;;4.53;1.70;;;9.30;99.90;;;;;;5072899;28;20459;-82
2022/04/08 10:30:45;;;;;;;3.72;1.20;;;9.50;99.90;;;;;;5079568;28;21058;-83
2022/04/08 10:33:13;;;;;;;4.97;1.30;;;9.40;99.90;;;;;;5059006;28;20408;-83
2022/04/08 10:35:52;;;;;;;4.70;1.67;;;9.50;99.90;;;;;;5063494;28;20750;-82
2022/04/08 10:38:18;;;;;;;3.42;1.52;;;9.40;99.90;;;;;;5063573;28;20387;-83
2022/04/08 10:40:53;;;;;;;5.05;1.73;;;9.50;99.90;;;;;;5062371;28;20374;-82
2022/04/08 10:43:19;;;;;;;6.22;1.42;;;9.90;99.90;;;;;;5061935;28;20392;-83
2022/04/08 10:45:58;;;;;;;5.17;1.40;;;10.30;99.90;;;;;;5084930;28;21216;-83
2022/04/08 10:48:34;;;;;;;6.30;1.58;;;10.40;99.90;;;;;;5079265;28;20404;-82
2022/04/08 10:51:11;;;;;;;4.45;1.60;;;10.30;99.90;;;;;;5091458;28;20404;-82
2022/04/08 10:53:41;;;;;;;3.90;1.50;;;10.10;99.90;;;;;;5068486;28;20446;-83
2022/04/08 10:56:12;;;;;;;4.65;1.75;;;10.30;99.90;;;;;;5090557;28;20471;-82
2022/04/08 10:58:49;;;;;;;4.20;1.83;;;10.80;99.90;;;;;;5068720;28;20407;-83
2022/04/08 11:01:16;;;;;;;6.95;1.77;;;9.80;99.90;;;;;;5071938;28;20470;-83
2022/04/08 11:03:46;;;;;;;5.95;1.83;;;10.10;99.90;;;;;;5057796;28;20376;-83
2022/04/08 11:06:18;;;;;;;4.20;1.58;;;9.90;99.90;;;;;;5084936;28;20384;-83
2022/04/08 11:08:49;;;;;;;4.27;1.97;;;9.90;99.90;;;;;;5062764;28;20438;-83
2022/04/08 11:11:15;;;;;;;3.72;1.48;;;10.10;99.90;;;;;;5072568;28;20408;-83
2022/04/08 11:13:44;;;;;;;4.90;1.60;;;10.70;99.90;;;;;;5066137;28;20387;-84
2022/04/08 11:16:10;;;;;;;4.63;1.35;;;10.90;99.90;;;;;;5085720;28;20392;-82
2022/04/08 11:18:35;;;;;;;3.05;1.55;;;11.20;99.90;;;;;;5089674;28;20398;-81
2022/04/08 11:21:01;;;;;;;6.13;1.67;;;11.00;99.90;;;;;;5062713;28;20395;-84
2022/04/08 11:23:30;;;;;;;5.87;1.60;;;11.50;99.90;;;;;;5084095;28;20379;-83
2022/04/08 11:25:56;;;;;;;4.20;1.50;;;11.10;99.90;;;;;;5090019;28;20866;-83
2022/04/08 11:28:24;;;;;;;3.03;1.42;;;10.90;99.90;;;;;;5088999;28;20434;-82
2022/04/08 11:30:59;;;;;;;2.70;1.40;;;11.30;99.90;;;;;;5110697;28;20395;-84
2022/04/08 11:33:26;;;;;;;2.83;1.42;;;10.80;99.90;;;;;;5085486;28;20414;-83
2022/04/08 11:35:57;;;;;;;4.05;1.55;;;10.90;99.90;;;;;;5104624;28;20375;-83
2022/04/08 11:38:23;;;;;;;5.20;1.63;;;10.70;99.90;;;;;;5102320;28;20769;-84
2022/04/08 11:40:52;;;;;;;3.78;1.55;;;10.50;99.90;;;;;;5108249;28;20382;-83
2022/04/08 11:43:19;;;;;;;4.43;1.50;;;10.40;99.90;;;;;;5091385;28;20407;-83
2022/04/08 11:45:46;;;;;;;4.28;1.60;;;11.10;99.90;;;;;;5122428;27;20381;-83
2022/04/08 11:48:15;;;;;;;4.40;1.53;;;11.00;99.90;;;;;;5129141;27;20423;-83
2022/04/08 11:50:42;;;;;;;4.67;1.87;;;11.50;99.90;;;;;;5106311;27;20419;-83
2022/04/08 11:53:19;;;;;;;5.60;1.40;;;11.10;99.90;;;;;;5111965;27;20429;-83
2022/04/08 11:56:04;;;;;;;3.90;1.73;;;11.30;99.90;;;;;;5113465;27;20874;-83
2022/04/08 11:58:30;;;;;;;4.82;1.77;;;11.40;99.90;;;;;;5107289;27;20480;-83
2022/04/08 12:00:59;;;;;;;5.28;1.70;;;11.50;99.90;;;;;;5130213;27;20456;-83
2022/04/08 12:03:29;;;;;;;5.07;2.00;;;11.20;99.90;;;;;;5107541;27;20372;-83
2022/04/08 12:06:00;;;;;;;4.95;1.45;;;;;;;;;;5116238;27;20419;-83
2022/04/08 12:08:27;;;;;;;3.90;1.70;;;;;;;;;;5131604;27;20467;-82
2022/04/08 12:10:55;;;;;;;3.42;1.60;;;;;;;;;;5106858;27;20516;-84
2022/04/08 12:13:22;;;;;;;5.68;1.55;;;;;;;;;;5117615;27;20931;-83
2022/04/08 12:15:55;;;;;;;5.35;1.60;;;;;;;;;;5102895;27;20420;-84
2022/04/08 12:18:27;;;;;;;6.35;2.20;;;11.70;99.40;;;;;;5097894;27;20364;-83
2022/04/08 12:20:55;;;;;;;3.33;1.60;;;11.60;99.20;;;;;;5114365;27;20495;-83
2022/04/08 12:23:25;;;;;;;4.13;1.77;;;11.50;99.90;;;;;;5121740;27;20739;-83
2022/04/08 12:25:57;;;;;;;4.82;1.70;;;11.30;99.90;;;;;;5103838;27;20971;-83
2022/04/08 12:28:24;;;;;;;5.63;1.90;;;11.10;99.90;;;;;;5122396;27;20392;-83
2022/04/08 12:30:51;;;;;;;4.60;1.80;;;10.90;99.90;;;;;;5108905;27;20392;-83
2022/04/08 12:33:17;;;;;;;6.43;2.03;;;10.70;99.90;;;;;;5126920;27;20414;-83
2022/04/08 12:35:49;;;;;;;5.60;1.90;;;10.80;99.90;;;;;;5106895;27;20766;-83
2022/04/08 12:38:22;;;;;;;6.07;1.90;;;10.80;99.90;;;;;;5106286;27;20694;-84
2022/04/08 12:40:49;;;;;;;6.53;2.20;;;11.00;99.90;;;;;;5098821;27;20383;-82
2022/04/08 12:43:15;;;;;;;7.25;2.03;;;11.10;99.90;;;;;;5116479;27;20874;-82
2022/04/08 12:45:41;;;;;;;5.70;1.90;;;11.10;99.90;;;;;;5126029;27;20942;-82
2022/04/08 12:48:07;;;;;;;6.00;2.38;;;11.10;99.90;;;;;;5106774;27;20460;-83
2022/04/08 12:50:33;;;;;;;5.93;2.10;;;11.20;99.90;;;;;;5125492;27;20400;-83
2022/04/08 12:53:00;;;;;;;5.47;1.67;;;11.50;99.90;;;;;;5125635;27;21027;-83
2022/04/08 12:55:26;;;;;;;5.33;2.10;;;11.80;99.90;;;;;;5120339;27;20413;-83
2022/04/08 12:57:52;;;;;;;5.47;2.40;;;11.80;99.90;;;;;;5107934;27;20892;-83
2022/04/08 13:00:18;;;;;;;5.60;2.00;;;11.90;99.90;;;;;;5107931;28;20373;-83
2022/04/08 13:02:45;;;;;;;6.20;2.05;;;12.00;99.60;;;;;;5125882;27;20365;-84
2022/04/08 13:05:12;;;;;;;7.15;2.08;;;12.00;99.00;;;;;;5104891;27;20473;-82